Aspen Park, Colorado
Current Conditions -  °F | °C
As of 12:53 AM on Friday 19 Dec 2014 (Local Time) from KAPA Reporting Station
Haze Haze  
Wind Chill: -4°   Ceiling: Unl
Heat Index: -4°   Visibility: 5mi
Dew Point: -5°   Wind: 3mph
Humidity: 92%   Direction: 150°SSE
Pressure: 30.06"   Gusts: NA
Location:  39.4975°N, 105.289°W
Report Text: KAPA 190753Z 15003KT 5SM BR FEW080 SCT200 M04/M05 A3006 RMK AO2 SLP202 T10391050
Loading
Personal Weather Stations






























Interactive Weather Map New forecast layout! Learn more

10-Day Weather Forecast

Advertisements
Track Severe Weather on mobile